Time;durP1;ratioP1;P1;durP2;ratioP2;P2;SDS_P1;SDS_P2;PMS_P1;PMS_P2;Temp;Humidity;BMP_temperature;BMP_pressure;BME280_temperature;BME280_humidity;BME280_pressure;Samples;Min_cycle;Max_cycle;Signal;HPM_P1;HPM_P2
2023/12/04 00:00:07;;;;;;;11.80;9.38;;;11.60;62.20;;;;;;345554;28;1044;-57
2023/12/04 00:00:18;;;;;;;11.70;9.27;;;11.50;62.30;;;;;;345579;28;830;-57
2023/12/04 00:00:28;;;;;;;12.25;9.40;;;11.50;62.40;;;;;;345586;28;1205;-56
2023/12/04 00:00:39;;;;;;;11.80;9.10;;;11.50;62.50;;;;;;345289;28;1533;-56
2023/12/04 00:00:50;;;;;;;13.13;9.30;;;11.50;62.60;;;;;;345381;28;1174;-55
2023/12/04 00:01:01;;;;;;;12.90;9.57;;;11.50;62.60;;;;;;345571;28;988;-55
2023/12/04 00:01:12;;;;;;;13.15;9.93;;;11.50;62.60;;;;;;345583;28;1028;-56
2023/12/04 00:01:23;;;;;;;12.88;9.93;;;11.50;62.70;;;;;;345467;28;1410;-56
2023/12/04 00:01:34;;;;;;;12.82;9.82;;;11.50;62.80;;;;;;345501;28;1135;-55
2023/12/04 00:01:46;;;;;;;12.45;9.77;;;11.50;62.80;;;;;;345504;28;921;-55
2023/12/04 00:01:56;;;;;;;13.32;9.55;;;11.50;62.80;;;;;;345535;28;1116;-55
2023/12/04 00:02:07;;;;;;;13.90;9.50;;;11.50;62.90;;;;;;345599;28;872;-56
2023/12/04 00:02:18;;;;;;;12.80;9.43;;;11.50;63.00;;;;;;345492;28;1135;-55
2023/12/04 00:02:29;;;;;;;12.43;9.37;;;11.50;63.10;;;;;;345582;28;1059;-56
2023/12/04 00:02:39;;;;;;;11.93;9.55;;;11.50;63.10;;;;;;345449;28;1055;-55
2023/12/04 00:02:50;;;;;;;11.65;9.57;;;11.50;63.20;;;;;;345533;28;1082;-55
2023/12/04 00:03:01;;;;;;;11.73;9.73;;;11.50;63.20;;;;;;345489;28;2999;-56
2023/12/04 00:03:12;;;;;;;11.25;9.60;;;11.50;63.30;;;;;;345520;28;1099;-55
2023/12/04 00:03:23;;;;;;;11.60;9.57;;;11.60;63.30;;;;;;345517;28;1058;-56
2023/12/04 00:03:33;;;;;;;11.57;9.73;;;11.50;63.40;;;;;;345441;28;1012;-56
2023/12/04 00:03:44;;;;;;;13.45;9.88;;;11.50;63.40;;;;;;345581;28;998;-56
2023/12/04 00:03:55;;;;;;;13.65;10.02;;;11.50;63.40;;;;;;345546;28;1178;-56
2023/12/04 00:04:06;;;;;;;13.82;9.88;;;11.50;63.40;;;;;;345538;28;1071;-56
2023/12/04 00:04:17;;;;;;;12.50;9.77;;;11.50;63.40;;;;;;345548;28;1021;-56
2023/12/04 00:04:27;;;;;;;12.57;9.65;;;11.50;63.30;;;;;;345468;28;912;-56
2023/12/04 00:04:38;;;;;;;12.53;9.93;;;11.50;63.30;;;;;;345487;28;1083;-57
2023/12/04 00:04:49;;;;;;;12.05;9.65;;;11.50;63.40;;;;;;345435;28;1314;-58
2023/12/04 00:05:00;;;;;;;12.13;9.60;;;11.50;63.50;;;;;;345577;28;1149;-56
2023/12/04 00:05:10;;;;;;;12.63;9.40;;;11.50;63.50;;;;;;345514;28;1043;-56
2023/12/04 00:05:21;;;;;;;13.10;9.38;;;11.50;63.40;;;;;;345455;28;1008;-57
2023/12/04 00:05:32;;;;;;;12.60;9.73;;;11.50;63.40;;;;;;345567;28;1067;-57
2023/12/04 00:05:44;;;;;;;11.73;9.77;;;11.50;63.40;;;;;;345561;28;976;-57
2023/12/04 00:05:54;;;;;;;12.88;9.88;;;11.50;63.40;;;;;;345515;28;1182;-55
2023/12/04 00:06:05;;;;;;;13.13;9.57;;;11.50;63.40;;;;;;345547;28;972;-56
2023/12/04 00:06:16;;;;;;;12.65;9.55;;;11.50;63.50;;;;;;345430;28;1369;-56
2023/12/04 00:06:27;;;;;;;12.02;9.32;;;11.50;63.50;;;;;;345526;28;1290;-55
2023/12/04 00:06:38;;;;;;;12.38;8.85;;;11.50;63.50;;;;;;345481;28;988;-56
2023/12/04 00:06:49;;;;;;;12.68;8.85;;;11.50;63.40;;;;;;345591;28;921;-57
2023/12/04 00:06:59;;;;;;;12.77;9.10;;;11.50;63.40;;;;;;345507;28;872;-57
2023/12/04 00:07:10;;;;;;;14.27;9.90;;;11.50;63.30;;;;;;345601;28;1039;-55
2023/12/04 00:07:21;;;;;;;14.18;10.07;;;11.50;63.30;;;;;;345535;28;987;-57
2023/12/04 00:07:32;;;;;;;12.80;9.95;;;11.50;63.20;;;;;;345506;28;1007;-55
2023/12/04 00:07:42;;;;;;;11.43;10.00;;;11.50;63.10;;;;;;345462;28;1120;-57
2023/12/04 00:07:53;;;;;;;11.67;9.77;;;11.50;63.10;;;;;;345477;28;1125;-57
2023/12/04 00:08:04;;;;;;;11.68;9.82;;;11.50;63.10;;;;;;345539;28;866;-56
2023/12/04 00:08:15;;;;;;;11.20;9.63;;;11.50;63.10;;;;;;345568;28;849;-56
2023/12/04 00:08:26;;;;;;;11.27;9.75;;;11.50;63.10;;;;;;345414;28;909;-58
2023/12/04 00:08:37;;;;;;;11.68;9.63;;;11.50;63.10;;;;;;345597;28;830;-56
2023/12/04 00:08:48;;;;;;;11.88;9.90;;;11.50;63.10;;;;;;345506;28;999;-57
2023/12/04 00:08:59;;;;;;;11.93;9.82;;;11.50;63.10;;;;;;345525;28;834;-56
2023/12/04 00:09:09;;;;;;;12.35;9.65;;;11.50;63.10;;;;;;345455;28;1079;-57
2023/12/04 00:09:20;;;;;;;12.65;9.60;;;11.50;63.10;;;;;;345493;28;1716;-56
2023/12/04 00:09:31;;;;;;;12.43;9.35;;;11.50;63.00;;;;;;345543;28;1083;-56
2023/12/04 00:09:42;;;;;;;12.30;9.43;;;11.50;62.90;;;;;;345550;28;849;-55
2023/12/04 00:09:53;;;;;;;12.77;9.57;;;11.50;62.80;;;;;;345419;28;976;-55
2023/12/04 00:10:04;;;;;;;12.32;9.45;;;11.50;62.80;;;;;;345557;28;821;-56
2023/12/04 00:10:15;;;;;;;13.25;9.52;;;11.50;62.80;;;;;;345491;28;1088;-56
2023/12/04 00:10:25;;;;;;;11.73;8.95;;;11.50;62.90;;;;;;345572;28;996;-57
2023/12/04 00:10:36;;;;;;;10.95;8.88;;;11.50;63.00;;;;;;345443;28;1003;-56
2023/12/04 00:10:47;;;;;;;10.90;8.75;;;11.50;63.10;;;;;;345466;28;1107;-56
2023/12/04 00:10:58;;;;;;;12.07;9.35;;;11.50;63.10;;;;;;345530;28;1012;-55
2023/12/04 00:11:08;;;;;;;11.87;9.37;;;11.50;63.10;;;;;;345419;28;1666;-55
2023/12/04 00:11:19;;;;;;;11.73;9.52;;;11.50;63.10;;;;;;345438;28;916;-56
2023/12/04 00:11:30;;;;;;;13.13;9.55;;;11.50;63.20;;;;;;345517;28;873;-55
2023/12/04 00:11:41;;;;;;;13.65;9.75;;;11.50;63.20;;;;;;345557;28;893;-55
2023/12/04 00:11:52;;;;;;;14.07;9.57;;;11.50;63.20;;;;;;345541;28;988;-54
2023/12/04 00:12:03;;;;;;;12.70;9.50;;;11.50;63.20;;;;;;345488;28;928;-56
2023/12/04 00:12:14;;;;;;;12.48;9.38;;;11.50;63.20;;;;;;345601;28;880;-56
2023/12/04 00:12:25;;;;;;;12.85;9.80;;;11.50;63.30;;;;;;345554;28;1032;-55
2023/12/04 00:12:35;;;;;;;13.75;9.90;;;11.50;63.40;;;;;;345570;28;924;-55
2023/12/04 00:12:46;;;;;;;13.32;9.70;;;11.50;63.40;;;;;;345444;28;980;-57
2023/12/04 00:12:57;;;;;;;13.38;9.68;;;11.50;63.40;;;;;;345489;28;1043;-56
2023/12/04 00:13:08;;;;;;;13.27;9.70;;;11.50;63.40;;;;;;345536;28;818;-56
2023/12/04 00:13:18;;;;;;;12.85;9.65;;;11.50;63.40;;;;;;345454;28;1083;-56
2023/12/04 00:13:29;;;;;;;11.70;9.45;;;11.50;63.50;;;;;;345458;28;1145;-55
2023/12/04 00:13:40;;;;;;;11.63;9.07;;;11.50;63.40;;;;;;345552;28;1070;-56
2023/12/04 00:13:51;;;;;;;11.23;9.07;;;11.50;63.30;;;;;;345501;28;1409;-56
2023/12/04 00:14:02;;;;;;;12.65;9.80;;;11.50;63.30;;;;;;345546;28;833;-56
2023/12/04 00:14:12;;;;;;;11.85;9.75;;;11.50;63.30;;;;;;345471;28;1075;-55
2023/12/04 00:14:23;;;;;;;12.30;9.75;;;11.50;63.30;;;;;;345464;28;1977;-55
2023/12/04 00:14:34;;;;;;;12.18;9.38;;;11.50;63.40;;;;;;345520;28;881;-55
2023/12/04 00:14:44;;;;;;;13.45;9.55;;;11.50;63.40;;;;;;345489;28;977;-55
2023/12/04 00:14:55;;;;;;;14.93;9.57;;;11.50;63.40;;;;;;345428;28;842;-56
2023/12/04 00:15:07;;;;;;;13.95;9.73;;;11.50;63.40;;;;;;345519;28;917;-55
2023/12/04 00:15:20;;;;;;;11.68;9.43;;;11.50;63.40;;;;;;345495;28;1142;-57
2023/12/04 00:15:31;;;;;;;11.50;9.25;;;11.50;63.40;;;;;;345439;28;1138;-56
2023/12/04 00:15:41;;;;;;;11.80;9.20;;;11.50;63.40;;;;;;345539;28;1523;-55
2023/12/04 00:15:52;;;;;;;11.13;9.38;;;11.50;63.50;;;;;;345419;28;1120;-55
2023/12/04 00:16:03;;;;;;;11.83;9.80;;;11.50;63.50;;;;;;345500;28;1072;-56
2023/12/04 00:16:14;;;;;;;11.80;10.15;;;11.40;63.50;;;;;;345431;28;1019;-55
2023/12/04 00:16:25;;;;;;;11.67;9.70;;;11.50;63.40;;;;;;345579;28;942;-55
2023/12/04 00:16:36;;;;;;;10.88;9.43;;;11.50;63.40;;;;;;345604;28;951;-55
2023/12/04 00:16:47;;;;;;;11.55;9.48;;;11.50;63.50;;;;;;345440;28;1031;-56
2023/12/04 00:16:57;;;;;;;12.27;9.80;;;11.50;63.50;;;;;;345432;28;1397;-55
2023/12/04 00:17:08;;;;;;;12.43;9.88;;;11.50;63.60;;;;;;345495;28;1035;-56
2023/12/04 00:17:19;;;;;;;12.20;9.77;;;11.50;63.70;;;;;;345481;28;904;-55
2023/12/04 00:17:30;;;;;;;11.45;9.48;;;11.50;63.70;;;;;;345568;28;829;-56
2023/12/04 00:17:41;;;;;;;11.70;9.70;;;11.50;63.60;;;;;;345541;28;1535;-55
2023/12/04 00:17:51;;;;;;;12.10;10.10;;;11.50;63.60;;;;;;345438;28;1095;-56
2023/12/04 00:18:02;;;;;;;13.98;10.18;;;11.50;63.60;;;;;;345512;28;980;-56
2023/12/04 00:18:13;;;;;;;12.90;9.73;;;11.50;63.60;;;;;;345485;28;1055;-57
2023/12/04 00:18:24;;;;;;;12.32;9.43;;;11.50;63.50;;;;;;345463;28;1068;-56
2023/12/04 00:18:34;;;;;;;11.13;9.20;;;11.50;63.50;;;;;;345469;28;1027;-56
2023/12/04 00:18:45;;;;;;;12.23;9.63;;;11.50;63.40;;;;;;345457;28;992;-55
2023/12/04 00:18:56;;;;;;;12.60;10.13;;;11.50;63.50;;;;;;345476;28;873;-55
2023/12/04 00:19:07;;;;;;;12.45;10.30;;;11.40;63.60;;;;;;345569;28;798;-56
2023/12/04 00:19:17;;;;;;;11.63;9.90;;;11.40;63.70;;;;;;345473;28;1051;-56
2023/12/04 00:19:28;;;;;;;12.23;9.50;;;11.40;63.80;;;;;;345461;28;1156;-55
2023/12/04 00:19:39;;;;;;;12.18;9.63;;;11.40;63.80;;;;;;345434;28;1084;-55
2023/12/04 00:19:49;;;;;;;12.60;9.68;;;11.40;63.90;;;;;;345455;28;1131;-56
2023/12/04 00:20:00;;;;;;;11.75;9.90;;;11.40;64.00;;;;;;345436;28;1096;-56
2023/12/04 00:20:11;;;;;;;10.53;9.30;;;11.40;64.00;;;;;;345485;28;1031;-57
2023/12/04 00:20:22;;;;;;;11.27;9.45;;;11.40;64.00;;;;;;345550;28;857;-56
2023/12/04 00:20:32;;;;;;;11.75;9.68;;;11.40;63.90;;;;;;345403;28;1088;-56
2023/12/04 00:20:43;;;;;;;11.93;9.82;;;11.40;64.00;;;;;;345505;28;1009;-55
2023/12/04 00:20:54;;;;;;;11.20;9.57;;;11.50;64.20;;;;;;345485;28;1068;-54
2023/12/04 00:21:05;;;;;;;11.77;9.57;;;11.40;64.20;;;;;;345527;28;1035;-55
2023/12/04 00:21:16;;;;;;;12.70;9.63;;;11.40;64.20;;;;;;345522;28;1024;-56
2023/12/04 00:21:26;;;;;;;12.93;9.65;;;11.40;64.20;;;;;;345474;28;1027;-57
2023/12/04 00:21:37;;;;;;;12.07;9.50;;;11.40;64.20;;;;;;345563;28;964;-58
2023/12/04 00:21:48;;;;;;;11.45;9.30;;;11.40;64.20;;;;;;345532;28;1019;-56
2023/12/04 00:21:59;;;;;;;11.38;9.18;;;11.40;64.20;;;;;;345483;28;837;-56
2023/12/04 00:22:09;;;;;;;11.07;9.33;;;11.50;64.20;;;;;;345508;28;862;-56
2023/12/04 00:22:20;;;;;;;11.38;9.57;;;11.50;64.20;;;;;;345491;28;1104;-56
2023/12/04 00:22:31;;;;;;;12.00;9.98;;;11.40;64.20;;;;;;345505;28;1095;-55
2023/12/04 00:22:42;;;;;;;12.60;9.88;;;11.50;64.30;;;;;;345585;28;825;-56
2023/12/04 00:22:54;;;;;;;13.35;10.10;;;11.40;64.30;;;;;;345553;28;794;-55
2023/12/04 00:23:05;;;;;;;12.63;10.23;;;11.40;64.40;;;;;;345547;28;1104;-55
2023/12/04 00:23:15;;;;;;;13.93;10.20;;;11.50;64.30;;;;;;345459;28;901;-56
2023/12/04 00:23:26;;;;;;;13.18;9.80;;;11.50;64.30;;;;;;345506;28;1168;-56
2023/12/04 00:23:37;;;;;;;12.00;9.27;;;11.50;64.40;;;;;;345480;28;783;-55
2023/12/04 00:23:48;;;;;;;11.68;9.32;;;11.50;64.40;;;;;;345426;28;1009;-56
2023/12/04 00:23:59;;;;;;;11.77;9.40;;;11.50;64.60;;;;;;345570;28;1023;-55
2023/12/04 00:24:10;;;;;;;12.70;9.52;;;11.50;64.60;;;;;;345486;28;1830;-57
2023/12/04 00:24:20;;;;;;;13.57;9.73;;;11.50;64.60;;;;;;345506;28;1126;-56
2023/12/04 00:24:31;;;;;;;13.38;9.75;;;11.50;64.50;;;;;;345607;28;893;-56
2023/12/04 00:24:42;;;;;;;12.83;9.63;;;11.50;64.40;;;;;;345494;28;838;-56
2023/12/04 00:24:53;;;;;;;12.47;9.47;;;11.50;64.20;;;;;;345500;28;1103;-55
2023/12/04 00:25:05;;;;;;;12.77;9.80;;;11.50;64.10;;;;;;345342;28;1013;-56
2023/12/04 00:25:16;;;;;;;13.07;10.00;;;11.50;64.00;;;;;;345493;28;1800;-57
2023/12/04 00:25:27;;;;;;;13.70;9.90;;;11.50;64.00;;;;;;345448;28;1013;-55
2023/12/04 00:25:37;;;;;;;13.50;9.87;;;11.50;64.00;;;;;;345525;28;1095;-56
2023/12/04 00:25:48;;;;;;;12.57;9.70;;;11.50;64.00;;;;;;345524;28;897;-56
2023/12/04 00:25:59;;;;;;;14.27;9.90;;;11.50;64.00;;;;;;345425;28;913;-55
2023/12/04 00:26:10;;;;;;;13.90;9.75;;;11.50;64.00;;;;;;345566;28;991;-56
2023/12/04 00:26:21;;;;;;;12.52;9.45;;;11.50;63.90;;;;;;345508;28;834;-56
2023/12/04 00:26:31;;;;;;;10.77;9.02;;;11.50;63.90;;;;;;345524;28;1099;-56
2023/12/04 00:26:42;;;;;;;11.27;9.17;;;11.50;63.90;;;;;;345417;28;1107;-55
2023/12/04 00:26:53;;;;;;;11.52;9.20;;;11.40;63.90;;;;;;345457;28;1071;-56
2023/12/04 00:27:04;;;;;;;11.68;9.88;;;11.50;64.00;;;;;;345484;28;1150;-56
2023/12/04 00:27:15;;;;;;;13.57;10.13;;;11.50;64.00;;;;;;345412;28;1240;-55
2023/12/04 00:27:28;;;;;;;14.40;10.00;;;11.50;64.10;;;;;;345422;28;1084;-55
2023/12/04 00:27:39;;;;;;;13.27;9.82;;;11.50;64.00;;;;;;345551;28;1095;-55
2023/12/04 00:27:50;;;;;;;11.67;9.53;;;11.40;63.90;;;;;;345504;28;917;-56
2023/12/04 00:28:01;;;;;;;12.27;9.68;;;11.50;63.80;;;;;;345423;28;1105;-57
2023/12/04 00:28:11;;;;;;;11.93;9.65;;;11.40;63.70;;;;;;345518;28;1024;-59
2023/12/04 00:28:22;;;;;;;12.32;9.73;;;11.40;63.70;;;;;;345426;28;1393;-57
2023/12/04 00:28:36;;;;;;;11.18;9.63;;;11.40;63.60;;;;;;345512;28;866;-55
2023/12/04 00:28:47;;;;;;;11.13;9.93;;;11.50;63.70;;;;;;345404;28;1194;-55
2023/12/04 00:28:58;;;;;;;11.65;9.82;;;11.40;63.80;;;;;;345503;28;980;-55
2023/12/04 00:29:08;;;;;;;12.03;9.67;;;11.40;63.90;;;;;;345498;28;945;-55
2023/12/04 00:29:19;;;;;;;12.88;10.05;;;11.40;63.90;;;;;;345465;28;960;-57
2023/12/04 00:29:30;;;;;;;14.00;10.30;;;11.40;63.90;;;;;;345481;28;1055;-55
2023/12/04 00:29:41;;;;;;;14.77;10.52;;;11.40;64.00;;;;;;345498;28;908;-56
2023/12/04 00:29:55;;;;;;;14.77;10.32;;;11.40;64.10;;;;;;345496;28;886;-57
2023/12/04 00:30:06;;;;;;;13.70;10.02;;;11.40;64.20;;;;;;345420;28;1190;-55
2023/12/04 00:30:17;;;;;;;13.15;10.05;;;11.40;64.30;;;;;;345543;28;1110;-55
2023/12/04 00:30:28;;;;;;;12.73;10.35;;;11.40;64.40;;;;;;345476;28;1075;-56
2023/12/04 00:30:39;;;;;;;12.93;10.27;;;11.40;64.50;;;;;;345352;28;1153;-55
2023/12/04 00:30:49;;;;;;;12.82;10.20;;;11.40;64.70;;;;;;345528;28;987;-55
2023/12/04 00:31:00;;;;;;;12.60;10.20;;;11.40;64.90;;;;;;345534;28;1075;-56
2023/12/04 00:31:11;;;;;;;12.60;9.97;;;11.40;65.00;;;;;;345520;28;941;-56
2023/12/04 00:31:22;;;;;;;13.05;9.98;;;11.40;65.00;;;;;;345420;28;1008;-56
2023/12/04 00:31:32;;;;;;;14.73;9.95;;;11.40;65.10;;;;;;345539;28;972;-56
2023/12/04 00:31:43;;;;;;;14.75;10.35;;;11.40;65.00;;;;;;345525;28;988;-56
2023/12/04 00:31:54;;;;;;;13.85;10.18;;;11.40;64.90;;;;;;345500;28;999;-56
2023/12/04 00:32:05;;;;;;;12.48;9.93;;;11.40;64.70;;;;;;345390;28;1078;-54
2023/12/04 00:32:16;;;;;;;13.63;9.83;;;11.40;64.60;;;;;;345530;28;1072;-55
2023/12/04 00:32:26;;;;;;;13.83;9.87;;;11.30;64.70;;;;;;345500;28;973;-56
2023/12/04 00:32:37;;;;;;;14.70;10.20;;;11.30;64.70;;;;;;345500;28;908;-56
2023/12/04 00:32:48;;;;;;;12.98;9.88;;;11.40;64.80;;;;;;345381;28;1063;-55
2023/12/04 00:32:59;;;;;;;12.30;9.55;;;11.30;64.80;;;;;;345476;28;1051;-56
2023/12/04 00:33:09;;;;;;;11.37;9.40;;;11.40;64.90;;;;;;345533;28;1011;-56
2023/12/04 00:33:20;;;;;;;11.30;9.43;;;11.40;64.90;;;;;;345491;28;901;-54
2023/12/04 00:33:31;;;;;;;11.77;9.85;;;11.40;64.90;;;;;;345435;28;992;-56
2023/12/04 00:33:42;;;;;;;11.80;9.93;;;11.30;64.90;;;;;;345458;28;1451;-55
2023/12/04 00:33:53;;;;;;;11.93;9.85;;;11.30;64.80;;;;;;345415;28;1558;-56
2023/12/04 00:34:03;;;;;;;11.05;9.60;;;11.40;64.70;;;;;;345549;28;896;-56
2023/12/04 00:34:14;;;;;;;11.33;9.57;;;11.30;64.60;;;;;;345433;28;1132;-56
2023/12/04 00:34:25;;;;;;;11.38;9.07;;;11.30;64.40;;;;;;345470;28;1906;-55
2023/12/04 00:34:36;;;;;;;12.45;9.30;;;11.30;64.30;;;;;;345554;28;833;-55
2023/12/04 00:34:47;;;;;;;12.70;9.73;;;11.30;64.20;;;;;;345424;28;1244;-55
2023/12/04 00:34:57;;;;;;;13.23;10.07;;;11.30;64.30;;;;;;345400;28;1823;-55
2023/12/04 00:35:08;;;;;;;13.45;10.10;;;11.30;64.30;;;;;;345523;28;1320;-57
2023/12/04 00:35:19;;;;;;;13.18;9.77;;;11.30;64.40;;;;;;345495;28;1000;-55
2023/12/04 00:35:30;;;;;;;12.52;9.68;;;11.30;64.40;;;;;;345462;28;1092;-55
2023/12/04 00:35:41;;;;;;;12.23;9.83;;;11.30;64.40;;;;;;345381;28;1150;-55
2023/12/04 00:35:51;;;;;;;13.10;10.35;;;11.30;64.40;;;;;;345474;28;1368;-56
2023/12/04 00:36:03;;;;;;;13.35;10.57;;;11.30;64.50;;;;;;345463;28;1144;-55
2023/12/04 00:36:13;;;;;;;12.88;10.45;;;11.30;64.50;;;;;;345563;28;1023;-56
2023/12/04 00:36:24;;;;;;;12.25;10.48;;;11.30;64.60;;;;;;345365;28;1087;-55
2023/12/04 00:36:35;;;;;;;13.27;10.77;;;11.30;64.70;;;;;;345537;28;1044;-54
2023/12/04 00:36:46;;;;;;;14.13;10.55;;;11.30;64.80;;;;;;345435;28;988;-55
2023/12/04 00:36:56;;;;;;;15.53;10.70;;;11.30;64.90;;;;;;345377;28;1108;-55
2023/12/04 00:37:07;;;;;;;14.65;10.10;;;11.30;64.90;;;;;;345507;28;1066;-56
2023/12/04 00:37:18;;;;;;;14.10;10.15;;;11.30;64.90;;;;;;345524;28;996;-56
2023/12/04 00:37:29;;;;;;;12.00;9.80;;;11.30;64.90;;;;;;345406;28;962;-55
2023/12/04 00:37:39;;;;;;;12.47;10.10;;;11.30;64.80;;;;;;345567;28;908;-56
2023/12/04 00:37:50;;;;;;;12.27;9.80;;;11.30;64.70;;;;;;345508;28;833;-56
2023/12/04 00:38:01;;;;;;;13.18;10.05;;;11.30;64.70;;;;;;345445;28;923;-55
2023/12/04 00:38:12;;;;;;;12.30;9.85;;;11.30;64.70;;;;;;345486;28;1174;-55
2023/12/04 00:38:22;;;;;;;12.77;10.05;;;11.30;64.80;;;;;;345458;28;2179;-56
2023/12/04 00:38:33;;;;;;;13.47;10.27;;;11.30;64.90;;;;;;345451;28;1941;-55
2023/12/04 00:38:44;;;;;;;13.93;10.32;;;11.30;65.00;;;;;;345496;28;1079;-56
2023/12/04 00:38:54;;;;;;;13.20;10.18;;;11.30;65.00;;;;;;345448;28;1025;-56
2023/12/04 00:39:05;;;;;;;12.82;9.85;;;11.30;65.10;;;;;;345471;28;1030;-55
2023/12/04 00:39:16;;;;;;;13.95;10.23;;;11.30;65.10;;;;;;345440;28;1188;-56
2023/12/04 00:39:27;;;;;;;13.68;10.32;;;11.30;65.10;;;;;;345439;28;1135;-55
2023/12/04 00:39:38;;;;;;;13.90;10.53;;;11.30;65.00;;;;;;345428;28;1047;-56
2023/12/04 00:39:49;;;;;;;12.95;10.05;;;11.30;65.00;;;;;;345501;28;1016;-55
2023/12/04 00:39:59;;;;;;;13.45;10.23;;;11.30;65.00;;;;;;345522;28;1055;-56
2023/12/04 00:40:10;;;;;;;13.07;10.20;;;11.30;65.00;;;;;;345459;28;1004;-55
2023/12/04 00:40:21;;;;;;;13.07;10.35;;;11.30;65.10;;;;;;345536;28;1035;-56
2023/12/04 00:40:32;;;;;;;13.05;10.32;;;11.30;65.20;;;;;;345508;28;884;-55
2023/12/04 00:40:43;;;;;;;12.75;10.15;;;11.30;65.30;;;;;;345443;28;1178;-56
2023/12/04 00:40:53;;;;;;;12.45;10.20;;;11.30;65.30;;;;;;345443;28;961;-55
2023/12/04 00:41:05;;;;;;;11.87;10.10;;;11.30;65.20;;;;;;345498;28;874;-56
2023/12/04 00:41:15;;;;;;;11.98;10.27;;;11.30;65.30;;;;;;345568;28;2122;-55
2023/12/04 00:41:26;;;;;;;12.48;10.63;;;11.30;65.30;;;;;;345408;28;1057;-56
2023/12/04 00:41:37;;;;;;;12.95;11.20;;;11.30;65.30;;;;;;345476;28;984;-55
2023/12/04 00:41:48;;;;;;;13.60;11.38;;;11.30;65.30;;;;;;345505;28;1934;-55
2023/12/04 00:41:58;;;;;;;14.20;11.38;;;11.30;65.30;;;;;;345487;28;1055;-56
2023/12/04 00:42:09;;;;;;;14.43;10.77;;;11.30;65.30;;;;;;345468;28;1012;-55
2023/12/04 00:42:20;;;;;;;13.27;10.38;;;11.30;65.30;;;;;;345454;28;976;-55
2023/12/04 00:42:31;;;;;;;11.55;10.15;;;11.30;65.30;;;;;;345573;28;822;-56
2023/12/04 00:42:41;;;;;;;11.77;10.32;;;11.30;65.20;;;;;;345493;28;1150;-55
2023/12/04 00:42:52;;;;;;;12.85;10.27;;;11.30;65.20;;;;;;345439;28;1372;-56
2023/12/04 00:43:03;;;;;;;13.53;10.20;;;11.30;65.20;;;;;;345515;28;833;-55
2023/12/04 00:43:14;;;;;;;12.50;9.88;;;11.30;65.20;;;;;;345555;28;976;-56
2023/12/04 00:43:25;;;;;;;11.30;9.73;;;11.30;65.20;;;;;;345523;28;904;-56
2023/12/04 00:43:35;;;;;;;11.68;9.80;;;11.30;65.30;;;;;;345469;28;1059;-56
2023/12/04 00:43:46;;;;;;;13.77;10.32;;;11.20;65.30;;;;;;345525;28;1078;-56
2023/12/04 00:43:57;;;;;;;14.52;10.75;;;11.30;65.40;;;;;;345400;28;1083;-55
2023/12/04 00:44:08;;;;;;;13.93;10.77;;;11.20;65.50;;;;;;345515;28;1063;-56
2023/12/04 00:44:19;;;;;;;13.02;10.50;;;11.30;65.60;;;;;;345484;28;960;-55
2023/12/04 00:44:30;;;;;;;13.85;10.68;;;11.30;65.60;;;;;;345457;28;1084;-56
2023/12/04 00:44:40;;;;;;;14.20;10.53;;;11.30;65.70;;;;;;345518;28;1079;-56
2023/12/04 00:44:51;;;;;;;13.45;10.40;;;11.20;65.70;;;;;;345453;28;1016;-56
2023/12/04 00:45:03;;;;;;;14.02;10.43;;;11.30;65.70;;;;;;345465;28;1012;-56
2023/12/04 00:45:13;;;;;;;15.20;11.05;;;11.30;65.70;;;;;;345554;28;924;-56
2023/12/04 00:45:24;;;;;;;15.47;11.27;;;11.20;65.60;;;;;;345484;28;1269;-54
2023/12/04 00:45:35;;;;;;;15.27;11.18;;;11.30;65.50;;;;;;345474;28;1136;-55
2023/12/04 00:45:46;;;;;;;15.80;11.35;;;11.30;65.50;;;;;;345400;28;1067;-55
2023/12/04 00:45:57;;;;;;;15.35;10.77;;;11.30;65.50;;;;;;345497;28;1091;-56
2023/12/04 00:46:07;;;;;;;14.70;10.90;;;11.20;65.50;;;;;;345503;28;892;-55
2023/12/04 00:46:18;;;;;;;13.32;11.18;;;11.30;65.50;;;;;;345392;28;1368;-55
2023/12/04 00:46:29;;;;;;;13.03;11.47;;;11.30;65.60;;;;;;345492;28;929;-56
2023/12/04 00:46:40;;;;;;;12.80;11.15;;;11.20;65.60;;;;;;345500;28;1166;-55
2023/12/04 00:46:50;;;;;;;13.40;11.05;;;11.30;65.70;;;;;;345406;28;1140;-56
2023/12/04 00:47:01;;;;;;;13.38;10.80;;;11.30;65.80;;;;;;345444;28;1084;-55
2023/12/04 00:47:12;;;;;;;13.48;10.70;;;11.30;65.90;;;;;;345507;28;1158;-55
2023/12/04 00:47:23;;;;;;;14.47;10.80;;;11.30;65.90;;;;;;345459;28;1118;-54
2023/12/04 00:47:33;;;;;;;14.77;10.88;;;11.30;65.90;;;;;;345452;28;1657;-55
2023/12/04 00:47:44;;;;;;;14.20;11.00;;;11.30;66.00;;;;;;345498;28;1883;-56
2023/12/04 00:47:55;;;;;;;13.18;10.77;;;11.30;66.00;;;;;;345345;28;1419;-55
2023/12/04 00:48:06;;;;;;;12.90;10.83;;;11.20;65.90;;;;;;345468;28;1044;-55
2023/12/04 00:48:16;;;;;;;12.20;10.33;;;11.30;65.90;;;;;;345525;28;1028;-55
2023/12/04 00:48:27;;;;;;;11.90;10.23;;;11.30;65.80;;;;;;345374;28;1279;-55
2023/12/04 00:48:38;;;;;;;12.00;9.77;;;11.30;65.70;;;;;;345436;28;1096;-55
2023/12/04 00:48:48;;;;;;;11.77;9.75;;;11.30;65.70;;;;;;345464;28;1022;-56
2023/12/04 00:48:59;;;;;;;10.80;9.57;;;11.30;65.70;;;;;;345411;28;1062;-55
2023/12/04 00:49:10;;;;;;;12.05;9.80;;;11.30;65.60;;;;;;345552;28;1082;-55
2023/12/04 00:49:21;;;;;;;12.38;9.70;;;11.20;65.60;;;;;;345506;28;976;-56
2023/12/04 00:49:32;;;;;;;12.77;9.77;;;11.30;65.50;;;;;;345446;28;1240;-55
2023/12/04 00:49:42;;;;;;;12.63;10.05;;;11.30;65.50;;;;;;345431;28;1237;-56
2023/12/04 00:49:53;;;;;;;12.32;9.93;;;11.30;65.40;;;;;;345444;28;1107;-55
2023/12/04 00:50:04;;;;;;;13.97;9.87;;;11.30;65.40;;;;;;345472;28;1474;-55
2023/12/04 00:50:15;;;;;;;14.00;9.68;;;11.30;65.50;;;;;;345579;28;909;-55
2023/12/04 00:50:26;;;;;;;14.68;10.10;;;11.30;65.60;;;;;;345462;28;1008;-55
2023/12/04 00:50:37;;;;;;;13.50;10.47;;;11.30;65.60;;;;;;345392;28;1075;-55
2023/12/04 00:50:48;;;;;;;12.88;10.55;;;11.30;65.70;;;;;;345485;28;1177;-55
2023/12/04 00:50:58;;;;;;;12.13;10.18;;;11.30;65.70;;;;;;345507;28;1154;-56
2023/12/04 00:51:09;;;;;;;13.27;10.27;;;11.30;65.70;;;;;;345415;28;1435;-56
2023/12/04 00:51:20;;;;;;;13.75;10.65;;;11.30;65.70;;;;;;345516;28;910;-56
2023/12/04 00:51:37;;;;;;;13.35;10.43;;;11.30;65.70;;;;;;345496;28;1091;-56
2023/12/04 00:51:48;;;;;;;12.40;9.93;;;11.30;65.70;;;;;;345535;28;912;-56
2023/12/04 00:51:59;;;;;;;12.93;10.30;;;11.30;65.60;;;;;;345455;28;1067;-55
2023/12/04 00:52:09;;;;;;;13.93;10.65;;;11.30;65.60;;;;;;345361;28;1383;-55
2023/12/04 00:52:20;;;;;;;13.97;10.50;;;11.30;65.60;;;;;;345445;28;1449;-56
2023/12/04 00:52:31;;;;;;;13.75;10.43;;;11.20;65.70;;;;;;345441;28;1078;-56
2023/12/04 00:52:42;;;;;;;13.35;10.48;;;11.30;65.70;;;;;;345414;28;945;-56
2023/12/04 00:52:53;;;;;;;14.60;10.60;;;11.30;65.70;;;;;;345497;28;984;-55
2023/12/04 00:53:04;;;;;;;14.70;10.63;;;11.30;65.70;;;;;;345515;28;1087;-57
2023/12/04 00:53:14;;;;;;;15.00;10.65;;;11.30;65.70;;;;;;345438;28;878;-56
2023/12/04 00:53:25;;;;;;;14.13;10.98;;;11.30;65.80;;;;;;345541;28;888;-56
2023/12/04 00:53:36;;;;;;;14.23;10.73;;;11.30;65.80;;;;;;345523;28;869;-55
2023/12/04 00:53:47;;;;;;;12.25;10.45;;;11.30;65.70;;;;;;345430;28;947;-55
2023/12/04 00:53:57;;;;;;;12.13;10.43;;;11.30;65.80;;;;;;345417;28;1564;-55
2023/12/04 00:54:08;;;;;;;12.70;10.98;;;11.30;65.80;;;;;;345477;28;1034;-56
2023/12/04 00:54:19;;;;;;;13.80;11.20;;;11.30;65.80;;;;;;345370;28;1976;-55
2023/12/04 00:54:30;;;;;;;13.27;10.80;;;11.30;65.80;;;;;;345458;28;1072;-55
2023/12/04 00:54:40;;;;;;;13.98;10.60;;;11.20;65.80;;;;;;345443;28;1091;-55
2023/12/04 00:54:51;;;;;;;14.23;10.60;;;11.20;65.90;;;;;;345434;28;1048;-55
2023/12/04 00:55:02;;;;;;;14.88;10.48;;;11.20;65.90;;;;;;345530;28;1138;-57
2023/12/04 00:55:13;;;;;;;14.32;10.60;;;11.30;65.80;;;;;;345480;28;972;-56
2023/12/04 00:55:24;;;;;;;13.43;10.30;;;11.30;65.80;;;;;;345485;28;1078;-58
2023/12/04 00:55:35;;;;;;;13.15;10.70;;;11.30;65.80;;;;;;345501;28;861;-56
2023/12/04 00:55:46;;;;;;;12.73;10.70;;;11.30;65.80;;;;;;345466;28;838;-56
2023/12/04 00:55:56;;;;;;;12.93;11.00;;;11.30;65.80;;;;;;345481;28;829;-56
2023/12/04 00:56:08;;;;;;;13.18;10.98;;;11.30;65.90;;;;;;345393;28;1111;-56
2023/12/04 00:56:20;;;;;;;14.40;11.32;;;11.30;66.00;;;;;;345475;28;1113;-56
2023/12/04 00:56:31;;;;;;;14.00;11.38;;;11.30;66.00;;;;;;345498;28;979;-55
2023/12/04 00:56:42;;;;;;;12.90;11.48;;;11.30;65.90;;;;;;345566;28;955;-55
2023/12/04 00:56:52;;;;;;;14.23;11.45;;;11.30;66.00;;;;;;345352;28;1573;-56
2023/12/04 00:57:03;;;;;;;15.50;11.70;;;11.30;66.00;;;;;;345491;28;1015;-56
2023/12/04 00:57:14;;;;;;;14.98;11.00;;;11.30;66.00;;;;;;345526;28;861;-56